createdAt,value
2022-08-23T00:02:27.073Z,21.70
2022-08-23T00:05:07.555Z,21.60
2022-08-23T00:07:41.322Z,21.60
2022-08-23T00:10:16.509Z,21.50
2022-08-23T00:12:45.081Z,21.40
2022-08-23T00:15:15.835Z,21.40
2022-08-23T00:17:42.750Z,21.30
2022-08-23T00:20:13.462Z,21.30
2022-08-23T00:22:40.596Z,21.30
2022-08-23T00:25:09.732Z,21.30
2022-08-23T00:27:37.162Z,21.20
2022-08-23T00:30:07.653Z,21.20
2022-08-23T00:32:36.920Z,21.20
2022-08-23T00:35:05.345Z,21.20
2022-08-23T00:37:32.796Z,21.30
2022-08-23T00:40:00.885Z,21.20
2022-08-23T00:43:26.457Z,21.30
2022-08-23T00:46:39.501Z,21.20
2022-08-23T00:49:10.161Z,21.30
2022-08-23T00:51:52.751Z,21.40
2022-08-23T00:54:23.302Z,21.50
2022-08-23T00:56:51.182Z,21.30
2022-08-23T00:59:18.578Z,21.20
2022-08-23T01:01:45.531Z,21.10
2022-08-23T01:04:14.024Z,21.00
2022-08-23T01:06:50.832Z,21.10
2022-08-23T01:09:26.839Z,21.00
2022-08-23T01:12:31.125Z,21.00
2022-08-23T01:15:10.000Z,20.90
2022-08-23T01:17:50.060Z,20.80
2022-08-23T01:20:27.038Z,20.80
2022-08-23T01:23:02.271Z,20.80
2022-08-23T01:25:32.879Z,20.70
2022-08-23T01:28:00.523Z,20.70
2022-08-23T01:30:32.791Z,20.70
2022-08-23T01:33:03.407Z,20.70
2022-08-23T01:35:54.894Z,20.70
2022-08-23T01:38:23.733Z,20.80
2022-08-23T01:40:51.442Z,20.80
2022-08-23T01:43:21.477Z,20.80
2022-08-23T01:45:51.684Z,20.80
2022-08-23T01:48:21.303Z,20.70
2022-08-23T01:50:48.594Z,20.80
2022-08-23T01:53:17.188Z,20.80
2022-08-23T01:55:48.964Z,20.90
2022-08-23T01:58:18.092Z,21.00
2022-08-23T02:00:46.164Z,21.10
2022-08-23T02:03:13.896Z,21.20
2022-08-23T02:05:42.746Z,21.00
2022-08-23T02:08:31.389Z,21.00
2022-08-23T02:11:00.632Z,20.90
2022-08-23T02:13:27.540Z,20.80
2022-08-23T02:15:59.237Z,20.70
2022-08-23T02:18:26.771Z,20.70
2022-08-23T02:20:53.616Z,20.60
2022-08-23T02:23:22.456Z,20.50
2022-08-23T02:25:51.739Z,20.50
2022-08-23T02:28:20.908Z,20.50
2022-08-23T02:30:49.873Z,20.50
2022-08-23T02:33:17.341Z,20.60
2022-08-23T02:35:44.987Z,20.50
2022-08-23T02:38:13.359Z,20.40
2022-08-23T02:40:42.458Z,20.40
2022-08-23T02:43:10.215Z,20.40
2022-08-23T02:45:39.127Z,20.30
2022-08-23T02:48:08.301Z,20.30
2022-08-23T02:50:43.439Z,20.20
2022-08-23T02:53:10.408Z,20.20
2022-08-23T02:55:40.631Z,20.10
2022-08-23T02:58:07.553Z,20.00
2022-08-23T03:01:10.357Z,20.00
2022-08-23T03:03:37.865Z,20.00
2022-08-23T03:06:25.374Z,20.00
2022-08-23T03:09:01.540Z,20.00
2022-08-23T03:11:29.400Z,19.90
2022-08-23T03:13:57.784Z,19.90
2022-08-23T03:16:43.264Z,19.80
2022-08-23T03:19:38.914Z,19.80
2022-08-23T03:22:09.729Z,19.70
2022-08-23T03:24:36.633Z,19.70
2022-08-23T03:27:05.054Z,19.70
2022-08-23T03:29:32.501Z,19.70
2022-08-23T03:32:02.235Z,19.70
2022-08-23T03:34:32.540Z,19.80
2022-08-23T03:36:59.498Z,19.70
2022-08-23T03:39:27.032Z,19.70
2022-08-23T03:41:56.230Z,19.80
2022-08-23T03:44:25.089Z,19.70
2022-08-23T03:46:51.957Z,19.70
2022-08-23T03:49:19.365Z,19.70
2022-08-23T03:51:52.758Z,19.70
2022-08-23T03:54:20.606Z,19.70
2022-08-23T03:57:01.185Z,19.70
2022-08-23T03:59:33.758Z,19.70
2022-08-23T04:02:01.470Z,19.70
2022-08-23T04:04:29.835Z,19.70
2022-08-23T04:07:23.617Z,19.70
2022-08-23T04:09:55.288Z,19.70
2022-08-23T04:12:24.509Z,19.80
2022-08-23T04:14:52.402Z,19.90
2022-08-23T04:17:20.981Z,19.90
2022-08-23T04:19:48.363Z,19.80
2022-08-23T04:22:17.709Z,19.80
2022-08-23T04:24:45.315Z,19.70
2022-08-23T04:27:13.144Z,19.50
2022-08-23T04:29:40.307Z,19.50
2022-08-23T04:32:11.606Z,19.40
2022-08-23T04:34:40.431Z,19.50
2022-08-23T04:37:09.592Z,19.60
2022-08-23T04:39:58.795Z,19.60
2022-08-23T04:42:31.944Z,19.60
2022-08-23T04:45:01.524Z,19.60
2022-08-23T04:47:29.656Z,19.50
2022-08-23T04:49:59.870Z,19.50
2022-08-23T04:52:26.717Z,19.40
2022-08-23T04:54:54.582Z,19.40
2022-08-23T04:57:33.513Z,19.40
2022-08-23T05:00:00.995Z,19.30
2022-08-23T05:02:28.183Z,19.30
2022-08-23T05:04:56.229Z,19.30
2022-08-23T05:07:30.976Z,19.30
2022-08-23T05:10:13.209Z,19.30
2022-08-23T05:12:42.982Z,19.40
2022-08-23T05:15:10.992Z,19.50
2022-08-23T05:17:42.139Z,19.50
2022-08-23T05:20:10.518Z,19.50
2022-08-23T05:22:41.173Z,19.40
2022-08-23T05:25:49.094Z,19.50
2022-08-23T05:28:28.709Z,19.50
2022-08-23T05:31:04.618Z,19.60
2022-08-23T05:33:41.426Z,19.60
2022-08-23T05:36:11.802Z,19.70
2022-08-23T05:38:39.204Z,19.70
2022-08-23T05:41:08.851Z,19.80
2022-08-23T05:43:36.797Z,19.90
2022-08-23T05:46:12.997Z,19.90
2022-08-23T05:48:47.059Z,19.90
2022-08-23T05:51:24.498Z,20.00
2022-08-23T05:53:54.538Z,20.00
2022-08-23T05:56:27.755Z,20.10
2022-08-23T05:59:00.025Z,20.20
2022-08-23T06:01:31.440Z,20.20
2022-08-23T06:04:08.185Z,20.30
2022-08-23T06:06:37.449Z,20.40
2022-08-23T06:09:07.735Z,20.50
2022-08-23T06:11:36.616Z,20.50
2022-08-23T06:14:09.405Z,20.60
2022-08-23T06:16:43.635Z,20.60
2022-08-23T06:19:14.209Z,20.70
2022-08-23T06:21:51.339Z,20.70
2022-08-23T06:24:32.258Z,20.70
2022-08-23T06:27:18.005Z,20.70
2022-08-23T06:29:46.039Z,20.80
2022-08-23T06:32:45.027Z,20.80
2022-08-23T06:35:38.887Z,20.80
2022-08-23T06:38:31.975Z,20.70
2022-08-23T06:41:05.364Z,20.80
2022-08-23T06:44:01.436Z,21.00
2022-08-23T06:46:33.109Z,21.00
2022-08-23T06:49:00.890Z,21.00
2022-08-23T06:51:48.271Z,21.00
2022-08-23T06:54:21.208Z,21.00
2022-08-23T06:56:54.133Z,21.00
2022-08-23T06:59:31.350Z,21.00
2022-08-23T07:02:02.791Z,21.00
2022-08-23T07:05:05.947Z,21.10
2022-08-23T07:07:51.015Z,21.10
2022-08-23T07:10:18.694Z,21.20
2022-08-23T07:12:45.562Z,21.30
2022-08-23T07:15:13.715Z,21.30
2022-08-23T07:17:44.018Z,21.40
2022-08-23T07:20:10.975Z,21.40
2022-08-23T07:22:40.522Z,21.60
2022-08-23T07:25:09.035Z,21.60
2022-08-23T07:27:39.542Z,21.70
2022-08-23T07:30:08.321Z,21.80
2022-08-23T07:32:37.509Z,21.90
2022-08-23T07:35:24.756Z,22.00
2022-08-23T07:37:57.815Z,22.00
2022-08-23T07:40:30.066Z,22.10
2022-08-23T07:43:03.841Z,22.30
2022-08-23T07:45:35.377Z,22.40
2022-08-23T07:48:04.416Z,22.50
2022-08-23T07:50:37.993Z,22.70
2022-08-23T07:53:37.392Z,22.70
2022-08-23T07:56:10.286Z,22.80
2022-08-23T07:59:09.080Z,23.00
2022-08-23T08:01:55.199Z,23.10
2022-08-23T08:04:24.307Z,23.20
2022-08-23T08:07:10.365Z,23.30
2022-08-23T08:09:42.745Z,23.40
2022-08-23T08:12:11.125Z,23.60
2022-08-23T08:14:42.077Z,23.90
2022-08-23T08:17:10.985Z,23.80
2022-08-23T08:19:58.200Z,23.90
2022-08-23T08:22:47.537Z,24.10
2022-08-23T08:25:34.363Z,24.40
2022-08-23T08:28:04.203Z,24.40
2022-08-23T08:30:31.504Z,24.30
2022-08-23T08:32:59.473Z,24.20
2022-08-23T08:35:27.453Z,24.30
2022-08-23T08:37:54.882Z,24.50
2022-08-23T08:40:33.869Z,24.50
2022-08-23T08:43:34.229Z,24.50
2022-08-23T08:46:06.111Z,24.70
2022-08-23T08:48:50.072Z,24.90
2022-08-23T08:51:45.384Z,24.80
2022-08-23T08:54:19.787Z,24.80
2022-08-23T08:56:55.941Z,24.70
2022-08-23T08:59:47.886Z,24.70
2022-08-23T09:02:32.506Z,24.90
2022-08-23T09:05:14.689Z,25.20
2022-08-23T09:08:12.032Z,25.40
2022-08-23T09:10:51.739Z,25.70
2022-08-23T09:13:48.232Z,25.60
2022-08-23T09:16:32.630Z,25.60
2022-08-23T09:19:01.808Z,25.80
2022-08-23T09:21:40.654Z,25.90
2022-08-23T09:24:08.330Z,26.00
2022-08-23T09:26:49.059Z,25.50
2022-08-23T09:29:27.438Z,25.10
2022-08-23T09:32:03.553Z,24.80
2022-08-23T09:34:36.077Z,24.70
2022-08-23T09:37:13.658Z,24.80
2022-08-23T09:39:42.784Z,25.00
2022-08-23T09:42:27.232Z,25.30
2022-08-23T09:44:54.626Z,25.80
2022-08-23T09:47:41.740Z,25.90
2022-08-23T09:50:29.630Z,25.80
2022-08-23T09:53:04.488Z,25.60
2022-08-23T09:56:04.435Z,25.60
2022-08-23T09:58:41.664Z,25.80
2022-08-23T10:01:21.948Z,26.00
2022-08-23T10:04:08.679Z,25.80
2022-08-23T10:06:36.220Z,25.60
2022-08-23T10:09:08.288Z,25.60
2022-08-23T10:11:46.277Z,25.40
2022-08-23T10:14:17.898Z,25.40
2022-08-23T10:17:04.715Z,25.40
2022-08-23T10:20:01.085Z,25.70
2022-08-23T10:22:46.107Z,25.80
2022-08-23T10:25:33.545Z,26.20
2022-08-23T10:29:20.252Z,26.00
2022-08-23T10:31:59.005Z,25.80
2022-08-23T10:34:50.421Z,25.80
2022-08-23T10:37:31.156Z,25.80
2022-08-23T10:40:21.523Z,26.00
2022-08-23T10:43:30.814Z,26.10
2022-08-23T10:46:01.811Z,26.10
2022-08-23T10:48:48.988Z,26.30
2022-08-23T10:51:23.271Z,26.40
2022-08-23T10:54:16.238Z,26.40
2022-08-23T10:56:51.184Z,26.20
2022-08-23T10:59:25.513Z,26.30
2022-08-23T11:02:01.238Z,26.40
2022-08-23T11:04:51.901Z,26.70
2022-08-23T11:07:37.313Z,26.80
2022-08-23T11:10:29.864Z,26.90
2022-08-23T11:13:08.921Z,27.00
2022-08-23T11:15:55.139Z,27.20
2022-08-23T11:18:42.720Z,27.30
2022-08-23T11:21:19.204Z,27.80
2022-08-23T11:23:59.834Z,27.70
2022-08-23T11:26:36.255Z,27.30
2022-08-23T11:29:06.512Z,27.30
2022-08-23T11:31:57.813Z,27.50
2022-08-23T11:34:48.924Z,27.80
2022-08-23T11:37:18.898Z,28.20
2022-08-23T11:39:59.599Z,28.60
2022-08-23T11:42:38.638Z,29.10
2022-08-23T11:45:24.585Z,29.10
2022-08-23T11:48:25.406Z,29.10
2022-08-23T11:51:11.663Z,29.40
2022-08-23T11:53:53.593Z,30.40
2022-08-23T11:56:43.262Z,31.20
2022-08-23T11:59:24.338Z,31.80
2022-08-23T12:01:51.689Z,31.90
2022-08-23T12:04:38.648Z,31.70
2022-08-23T12:07:12.749Z,31.40
2022-08-23T12:09:43.017Z,30.60
2022-08-23T12:12:23.705Z,30.30
2022-08-23T12:14:54.901Z,30.50
2022-08-23T12:17:26.047Z,31.00
2022-08-23T12:20:01.124Z,31.80
2022-08-23T12:23:02.181Z,32.50
2022-08-23T12:25:31.896Z,32.00
2022-08-23T12:28:27.538Z,31.70
2022-08-23T12:31:07.939Z,31.80
2022-08-23T12:33:42.182Z,31.80
2022-08-23T12:36:30.058Z,31.80
2022-08-23T12:39:25.517Z,31.10
2022-08-23T12:42:15.818Z,30.50
2022-08-23T12:44:45.853Z,30.70
2022-08-23T12:47:21.583Z,30.90
2022-08-23T12:50:33.062Z,31.60
2022-08-23T12:53:12.471Z,31.90
2022-08-23T12:55:52.012Z,31.90
2022-08-23T12:58:31.686Z,32.20
2022-08-23T13:01:05.397Z,32.50
2022-08-23T13:03:39.622Z,32.10
2022-08-23T13:06:11.923Z,32.30
2022-08-23T13:08:44.789Z,32.50
2022-08-23T13:11:14.469Z,32.10
2022-08-23T13:13:44.086Z,31.80
2022-08-23T13:16:27.342Z,31.60
2022-08-23T13:18:56.602Z,31.80
2022-08-23T13:21:23.428Z,31.80
2022-08-23T13:23:55.744Z,31.40
2022-08-23T13:26:24.870Z,31.00
2022-08-23T13:29:01.990Z,30.60
2022-08-23T13:32:04.148Z,30.10
2022-08-23T13:34:40.847Z,29.50
2022-08-23T13:37:21.225Z,29.40
2022-08-23T13:39:52.274Z,29.90
2022-08-23T13:42:54.563Z,30.60
2022-08-23T13:45:36.661Z,31.10
2022-08-23T13:48:18.951Z,31.80
2022-08-23T13:50:46.237Z,32.40
2022-08-23T13:53:15.602Z,32.60
2022-08-23T13:55:53.013Z,32.90
2022-08-23T13:58:32.888Z,32.40
2022-08-23T14:01:18.172Z,32.50
2022-08-23T14:03:45.375Z,33.00
2022-08-23T14:06:12.583Z,32.70
2022-08-23T14:08:39.660Z,32.50
2022-08-23T14:11:06.943Z,31.90
2022-08-23T14:13:36.748Z,31.50
2022-08-23T14:21:41.432Z,31.80
2022-08-23T14:24:08.547Z,32.00
2022-08-23T14:26:35.476Z,31.10
2022-08-23T14:29:02.325Z,30.90
2022-08-23T14:31:29.194Z,30.70
2022-08-23T14:34:01.374Z,30.70
2022-08-23T14:36:30.034Z,30.50
2022-08-23T14:38:56.969Z,30.20
2022-08-23T14:41:26.676Z,29.80
2022-08-23T14:43:54.177Z,29.60
2022-08-23T14:46:24.241Z,29.60
2022-08-23T14:48:51.117Z,29.40
2022-08-23T14:51:43.192Z,29.00
2022-08-23T14:54:17.977Z,29.20
2022-08-23T14:56:44.855Z,29.50
2022-08-23T14:59:12.110Z,29.70
2022-08-23T15:01:43.544Z,29.60
2022-08-23T15:04:10.605Z,29.40
2022-08-23T15:06:54.925Z,29.40
2022-08-23T15:09:27.958Z,29.50
2022-08-23T15:14:42.747Z,29.30
2022-08-23T15:17:10.840Z,29.20
2022-08-23T15:19:37.860Z,29.10
2022-08-23T15:22:21.632Z,29.30
2022-08-23T15:24:49.238Z,29.10
2022-08-23T15:27:17.500Z,29.00
2022-08-23T15:29:44.393Z,29.20
2022-08-23T15:32:12.821Z,29.30
2022-08-23T15:34:46.214Z,29.20
2022-08-23T15:37:14.490Z,29.40
2022-08-23T15:39:42.391Z,29.70
2022-08-23T15:42:09.679Z,30.00
2022-08-23T15:44:37.750Z,30.00
2022-08-23T15:47:13.738Z,30.20
2022-08-23T15:49:41.655Z,30.20
2022-08-23T15:52:08.553Z,30.40
2022-08-23T15:54:36.602Z,30.50
2022-08-23T15:57:04.620Z,30.50
2022-08-23T15:59:36.041Z,30.20
2022-08-23T16:02:03.705Z,29.80
2022-08-23T16:04:35.546Z,29.70
2022-08-23T16:07:05.765Z,29.70
2022-08-23T16:09:34.842Z,29.80
2022-08-23T16:12:04.022Z,30.00
2022-08-23T16:14:34.094Z,30.10
2022-08-23T16:17:00.982Z,29.80
2022-08-23T16:19:28.295Z,29.80
2022-08-23T16:21:55.820Z,29.80
2022-08-23T16:24:24.561Z,29.80
2022-08-23T16:26:52.430Z,29.80
2022-08-23T16:29:20.754Z,29.90
2022-08-23T16:31:47.934Z,29.90
2022-08-23T16:34:18.153Z,29.80
2022-08-23T16:36:50.328Z,29.90
2022-08-23T16:39:18.228Z,29.80
2022-08-23T16:41:45.218Z,29.60
2022-08-23T16:44:12.250Z,29.30
2022-08-23T16:46:43.845Z,29.10
2022-08-23T16:49:16.531Z,29.00
2022-08-23T16:51:44.254Z,29.10
2022-08-23T16:54:11.721Z,29.30
2022-08-23T16:56:41.262Z,29.40
2022-08-23T16:59:10.671Z,29.30
2022-08-23T17:01:56.205Z,29.30
2022-08-23T17:04:25.145Z,29.30
2022-08-23T17:06:58.739Z,29.20
2022-08-23T17:09:28.342Z,29.10
2022-08-23T17:11:58.081Z,29.10
2022-08-23T17:14:26.583Z,29.10
2022-08-23T17:16:53.628Z,28.80
2022-08-23T17:19:21.707Z,28.60
2022-08-23T17:21:48.983Z,28.50
2022-08-23T17:24:15.846Z,28.70
2022-08-23T17:26:43.010Z,28.90
2022-08-23T17:29:10.007Z,28.90
2022-08-23T17:31:37.831Z,29.00
2022-08-23T17:34:06.505Z,28.90
2022-08-23T17:36:38.424Z,28.80
2022-08-23T17:39:09.250Z,28.90
2022-08-23T17:41:36.430Z,28.80
2022-08-23T17:44:05.311Z,28.60
2022-08-23T17:46:38.412Z,28.30
2022-08-23T17:49:07.699Z,28.10
2022-08-23T17:51:36.707Z,28.10
2022-08-23T17:54:05.072Z,28.20
2022-08-23T17:56:33.431Z,28.30
2022-08-23T17:59:01.393Z,28.30
2022-08-23T18:01:31.256Z,28.30
2022-08-23T18:03:58.607Z,28.20
2022-08-23T18:06:26.423Z,28.00
2022-08-23T18:08:55.254Z,27.90
2022-08-23T18:11:22.914Z,28.00
2022-08-23T18:13:50.213Z,28.10
2022-08-23T18:16:17.501Z,28.10
2022-08-23T18:18:44.551Z,28.00
2022-08-23T18:21:14.673Z,28.00
2022-08-23T18:23:44.175Z,27.90
2022-08-23T18:26:32.707Z,27.70
2022-08-23T18:29:01.301Z,27.70
2022-08-23T18:31:28.378Z,27.70
2022-08-23T18:34:00.206Z,27.70
2022-08-23T18:36:29.192Z,27.80
2022-08-23T18:38:57.000Z,27.60
2022-08-23T18:41:23.907Z,27.60
2022-08-23T18:43:51.229Z,27.50
2022-08-23T18:46:18.934Z,27.50
2022-08-23T18:48:53.291Z,27.50
2022-08-23T18:51:22.330Z,27.60
2022-08-23T18:53:51.354Z,27.50
2022-08-23T18:56:18.256Z,27.40
2022-08-23T18:58:45.438Z,27.30
2022-08-23T19:01:30.693Z,27.30
2022-08-23T19:04:00.321Z,27.30
2022-08-23T19:06:28.281Z,27.20
2022-08-23T19:08:55.477Z,27.10
2022-08-23T19:11:23.399Z,27.10
2022-08-23T19:13:51.344Z,27.10
2022-08-23T19:16:19.550Z,27.10
2022-08-23T19:18:49.621Z,27.10
2022-08-23T19:21:20.594Z,27.00
2022-08-23T19:23:50.191Z,27.10
2022-08-23T19:26:19.722Z,27.10
2022-08-23T19:28:47.222Z,27.10
2022-08-23T19:31:14.721Z,27.00
2022-08-23T19:33:41.784Z,26.90
2022-08-23T19:36:23.769Z,26.90
2022-08-23T19:38:57.124Z,26.80
2022-08-23T19:41:25.144Z,26.70
2022-08-23T19:43:52.110Z,26.80
2022-08-23T19:46:19.251Z,26.70
2022-08-23T19:48:47.285Z,26.70
2022-08-23T19:51:20.326Z,26.70
2022-08-23T19:54:04.937Z,26.70
2022-08-23T19:56:45.728Z,26.60
2022-08-23T19:59:16.566Z,26.50
2022-08-23T20:01:43.643Z,26.50
2022-08-23T20:04:11.004Z,26.50
2022-08-23T20:06:40.257Z,26.40
2022-08-23T20:09:11.276Z,26.40
2022-08-23T20:11:42.557Z,26.60
2022-08-23T20:14:10.922Z,26.60
2022-08-23T20:16:40.738Z,26.50
2022-08-23T20:19:09.396Z,26.40
2022-08-23T20:21:37.341Z,26.30
2022-08-23T20:24:05.461Z,26.40
2022-08-23T20:26:35.682Z,26.20
2022-08-23T20:29:04.105Z,26.10
2022-08-23T20:31:35.868Z,26.10
2022-08-23T20:34:05.642Z,26.00
2022-08-23T20:36:35.166Z,25.90
2022-08-23T20:39:02.280Z,25.80
2022-08-23T20:41:33.360Z,25.80
2022-08-23T20:44:02.218Z,25.80
2022-08-23T20:46:29.778Z,25.60
2022-08-23T20:48:58.368Z,25.40
2022-08-23T20:51:27.162Z,25.30
2022-08-23T20:53:56.473Z,25.30
2022-08-23T20:56:25.124Z,25.30
2022-08-23T20:58:52.485Z,25.20
2022-08-23T21:01:19.577Z,25.20
2022-08-23T21:03:47.966Z,25.30
2022-08-23T21:06:30.323Z,25.10
2022-08-23T21:09:00.029Z,25.00
2022-08-23T21:11:28.734Z,24.90
2022-08-23T21:13:57.207Z,24.90
2022-08-23T21:16:25.284Z,24.90
2022-08-23T21:18:55.496Z,24.90
2022-08-23T21:21:24.294Z,24.90
2022-08-23T21:23:51.967Z,24.80
2022-08-23T21:26:20.018Z,24.80
2022-08-23T21:28:46.916Z,24.70
2022-08-23T21:31:25.369Z,24.70
2022-08-23T21:33:53.720Z,24.60
2022-08-23T21:36:22.490Z,24.60
2022-08-23T21:38:50.102Z,24.60
2022-08-23T21:41:33.855Z,24.60
2022-08-23T21:44:02.418Z,24.60
2022-08-23T21:46:29.741Z,24.50
2022-08-23T21:48:56.669Z,24.50
2022-08-23T21:51:23.877Z,24.50
2022-08-23T21:53:50.868Z,24.50
2022-08-23T21:56:19.236Z,24.40
2022-08-23T21:58:50.462Z,24.40
2022-08-23T22:01:18.737Z,24.40
2022-08-23T22:03:45.738Z,24.30
2022-08-23T22:06:15.889Z,24.30
2022-08-23T22:08:43.863Z,24.30
2022-08-23T22:11:14.987Z,24.20
2022-08-23T22:13:42.569Z,24.20
2022-08-23T22:16:09.706Z,24.30
2022-08-23T22:18:36.922Z,24.20
2022-08-23T22:21:04.785Z,24.20
2022-08-23T22:23:32.225Z,24.20
2022-08-23T22:26:01.720Z,24.10
2022-08-23T22:28:31.388Z,24.10
2022-08-23T22:31:01.330Z,24.10
2022-08-23T22:33:28.778Z,24.10
2022-08-23T22:36:01.600Z,24.00
2022-08-23T22:38:28.623Z,24.00
2022-08-23T22:40:55.456Z,24.00
2022-08-23T22:43:22.421Z,24.00
2022-08-23T22:45:51.000Z,24.00
2022-08-23T22:48:18.036Z,24.00
2022-08-23T22:50:44.909Z,23.90
2022-08-23T22:53:12.393Z,23.90
2022-08-23T22:55:40.774Z,23.90
2022-08-23T22:58:08.784Z,23.90
2022-08-23T23:00:42.465Z,23.90
2022-08-23T23:03:10.605Z,23.80
2022-08-23T23:05:38.749Z,23.80
2022-08-23T23:08:25.012Z,23.80
2022-08-23T23:10:51.939Z,23.80
2022-08-23T23:13:24.074Z,23.70
2022-08-23T23:15:51.676Z,23.70
2022-08-23T23:18:19.533Z,23.60
2022-08-23T23:20:46.858Z,23.60
2022-08-23T23:23:17.715Z,23.60
2022-08-23T23:25:46.111Z,23.70
2022-08-23T23:28:14.345Z,23.70
2022-08-23T23:30:43.369Z,23.60
2022-08-23T23:33:10.324Z,23.60
2022-08-23T23:35:37.575Z,23.50
2022-08-23T23:38:05.981Z,23.50
2022-08-23T23:40:36.121Z,23.50
2022-08-23T23:43:03.559Z,23.50
2022-08-23T23:45:30.514Z,23.50
2022-08-23T23:47:57.830Z,23.50
2022-08-23T23:50:27.166Z,23.50
2022-08-23T23:52:54.408Z,23.50
2022-08-23T23:55:22.706Z,23.40
2022-08-23T23:57:49.778Z,23.20
